sensor_id;sensor_type;location;lat;lon;timestamp;P1;durP1;ratioP1;P2;durP2;ratioP2
11747;SDS011;5931;48.832;9.072;2023-06-26T00:00:05;8.90;;;5.83;;
11747;SDS011;5931;48.832;9.072;2023-06-26T00:02:32;10.57;;;4.73;;
11747;SDS011;5931;48.832;9.072;2023-06-26T00:04:57;8.53;;;5.73;;
11747;SDS011;5931;48.832;9.072;2023-06-26T00:07:23;9.70;;;5.20;;
11747;SDS011;5931;48.832;9.072;2023-06-26T00:09:49;10.33;;;5.40;;
11747;SDS011;5931;48.832;9.072;2023-06-26T00:12:15;8.13;;;5.30;;
11747;SDS011;5931;48.832;9.072;2023-06-26T00:14:40;9.60;;;5.47;;
11747;SDS011;5931;48.832;9.072;2023-06-26T00:17:06;7.97;;;5.20;;
11747;SDS011;5931;48.832;9.072;2023-06-26T00:19:32;8.40;;;5.00;;
11747;SDS011;5931;48.832;9.072;2023-06-26T00:21:58;6.70;;;4.67;;
11747;SDS011;5931;48.832;9.072;2023-06-26T00:24:23;9.83;;;4.90;;
11747;SDS011;5931;48.832;9.072;2023-06-26T00:26:49;8.83;;;5.20;;
11747;SDS011;5931;48.832;9.072;2023-06-26T00:29:15;7.87;;;5.10;;
11747;SDS011;5931;48.832;9.072;2023-06-26T00:31:41;8.37;;;5.30;;
11747;SDS011;5931;48.832;9.072;2023-06-26T00:34:07;9.90;;;5.63;;
11747;SDS011;5931;48.832;9.072;2023-06-26T00:36:33;9.77;;;4.83;;
11747;SDS011;5931;48.832;9.072;2023-06-26T00:38:59;7.40;;;5.10;;
11747;SDS011;5931;48.832;9.072;2023-06-26T00:41:26;9.37;;;5.73;;
11747;SDS011;5931;48.832;9.072;2023-06-26T00:43:51;9.87;;;5.00;;
11747;SDS011;5931;48.832;9.072;2023-06-26T00:46:17;5.80;;;4.37;;
11747;SDS011;5931;48.832;9.072;2023-06-26T00:48:43;7.03;;;5.30;;
11747;SDS011;5931;48.832;9.072;2023-06-26T00:51:10;7.87;;;4.37;;
11747;SDS011;5931;48.832;9.072;2023-06-26T00:53:37;9.03;;;5.10;;
11747;SDS011;5931;48.832;9.072;2023-06-26T00:56:03;7.13;;;4.47;;
11747;SDS011;5931;48.832;9.072;2023-06-26T00:58:30;9.57;;;5.17;;
11747;SDS011;5931;48.832;9.072;2023-06-26T01:00:56;8.97;;;5.00;;
11747;SDS011;5931;48.832;9.072;2023-06-26T01:03:23;8.33;;;5.80;;
11747;SDS011;5931;48.832;9.072;2023-06-26T01:05:50;7.70;;;4.63;;
11747;SDS011;5931;48.832;9.072;2023-06-26T01:08:17;8.23;;;4.73;;
11747;SDS011;5931;48.832;9.072;2023-06-26T01:10:44;7.33;;;4.67;;
11747;SDS011;5931;48.832;9.072;2023-06-26T01:13:13;7.23;;;4.80;;
11747;SDS011;5931;48.832;9.072;2023-06-26T01:15:40;7.10;;;4.83;;
11747;SDS011;5931;48.832;9.072;2023-06-26T01:18:06;8.03;;;4.73;;
11747;SDS011;5931;48.832;9.072;2023-06-26T01:20:35;6.83;;;4.43;;
11747;SDS011;5931;48.832;9.072;2023-06-26T01:28:23;11.27;;;5.47;;
11747;SDS011;5931;48.832;9.072;2023-06-26T01:30:51;7.07;;;4.20;;
11747;SDS011;5931;48.832;9.072;2023-06-26T01:33:17;7.53;;;4.80;;
11747;SDS011;5931;48.832;9.072;2023-06-26T01:35:43;9.67;;;4.33;;
11747;SDS011;5931;48.832;9.072;2023-06-26T01:38:14;8.37;;;5.77;;
11747;SDS011;5931;48.832;9.072;2023-06-26T01:40:41;6.23;;;4.53;;
11747;SDS011;5931;48.832;9.072;2023-06-26T01:43:11;10.13;;;4.97;;
11747;SDS011;5931;48.832;9.072;2023-06-26T01:45:50;7.07;;;4.40;;
11747;SDS011;5931;48.832;9.072;2023-06-26T01:48:20;7.57;;;4.87;;
11747;SDS011;5931;48.832;9.072;2023-06-26T01:50:51;8.60;;;4.80;;
11747;SDS011;5931;48.832;9.072;2023-06-26T01:53:19;7.93;;;4.97;;
11747;SDS011;5931;48.832;9.072;2023-06-26T01:58:37;6.03;;;4.10;;
11747;SDS011;5931;48.832;9.072;2023-06-26T02:01:08;5.80;;;4.10;;
11747;SDS011;5931;48.832;9.072;2023-06-26T02:03:34;10.83;;;5.87;;
11747;SDS011;5931;48.832;9.072;2023-06-26T02:05:59;9.93;;;5.70;;
11747;SDS011;5931;48.832;9.072;2023-06-26T02:08:26;5.93;;;4.37;;
11747;SDS011;5931;48.832;9.072;2023-06-26T02:10:55;8.23;;;4.50;;
11747;SDS011;5931;48.832;9.072;2023-06-26T02:13:21;7.33;;;5.20;;
11747;SDS011;5931;48.832;9.072;2023-06-26T02:15:47;7.87;;;4.50;;
11747;SDS011;5931;48.832;9.072;2023-06-26T02:18:13;7.80;;;4.83;;
11747;SDS011;5931;48.832;9.072;2023-06-26T02:20:38;7.57;;;4.73;;
11747;SDS011;5931;48.832;9.072;2023-06-26T02:23:05;6.60;;;4.80;;
11747;SDS011;5931;48.832;9.072;2023-06-26T02:25:30;8.40;;;4.43;;
11747;SDS011;5931;48.832;9.072;2023-06-26T02:27:56;7.83;;;5.10;;
11747;SDS011;5931;48.832;9.072;2023-06-26T02:30:22;8.27;;;4.77;;
11747;SDS011;5931;48.832;9.072;2023-06-26T02:32:47;7.93;;;5.40;;
11747;SDS011;5931;48.832;9.072;2023-06-26T02:35:13;8.80;;;5.30;;
11747;SDS011;5931;48.832;9.072;2023-06-26T02:37:41;8.37;;;5.33;;
11747;SDS011;5931;48.832;9.072;2023-06-26T02:40:07;7.40;;;4.40;;
11747;SDS011;5931;48.832;9.072;2023-06-26T02:42:36;6.27;;;5.07;;
11747;SDS011;5931;48.832;9.072;2023-06-26T02:45:03;9.97;;;5.90;;
11747;SDS011;5931;48.832;9.072;2023-06-26T02:47:30;9.80;;;4.80;;
11747;SDS011;5931;48.832;9.072;2023-06-26T02:49:56;8.40;;;5.27;;
11747;SDS011;5931;48.832;9.072;2023-06-26T02:52:22;7.77;;;4.90;;
11747;SDS011;5931;48.832;9.072;2023-06-26T02:54:48;10.10;;;4.63;;
11747;SDS011;5931;48.832;9.072;2023-06-26T02:57:13;9.60;;;5.27;;
11747;SDS011;5931;48.832;9.072;2023-06-26T02:59:39;7.03;;;4.50;;
11747;SDS011;5931;48.832;9.072;2023-06-26T03:02:05;11.93;;;5.37;;
11747;SDS011;5931;48.832;9.072;2023-06-26T03:04:36;10.50;;;5.43;;
11747;SDS011;5931;48.832;9.072;2023-06-26T03:07:03;12.57;;;5.90;;
11747;SDS011;5931;48.832;9.072;2023-06-26T03:09:30;7.20;;;4.97;;
11747;SDS011;5931;48.832;9.072;2023-06-26T03:11:56;6.23;;;4.23;;
11747;SDS011;5931;48.832;9.072;2023-06-26T03:14:21;7.03;;;4.83;;
11747;SDS011;5931;48.832;9.072;2023-06-26T03:16:47;7.70;;;5.37;;
11747;SDS011;5931;48.832;9.072;2023-06-26T03:19:13;7.63;;;5.00;;
11747;SDS011;5931;48.832;9.072;2023-06-26T03:22:01;6.73;;;4.90;;
11747;SDS011;5931;48.832;9.072;2023-06-26T03:24:29;7.67;;;5.10;;
11747;SDS011;5931;48.832;9.072;2023-06-26T03:26:54;7.70;;;5.40;;
11747;SDS011;5931;48.832;9.072;2023-06-26T03:29:20;7.00;;;3.93;;
11747;SDS011;5931;48.832;9.072;2023-06-26T03:31:46;11.20;;;7.37;;
11747;SDS011;5931;48.832;9.072;2023-06-26T03:34:12;8.53;;;4.90;;
11747;SDS011;5931;48.832;9.072;2023-06-26T03:36:38;7.20;;;4.70;;
11747;SDS011;5931;48.832;9.072;2023-06-26T03:39:03;7.67;;;4.93;;
11747;SDS011;5931;48.832;9.072;2023-06-26T03:41:30;8.20;;;4.63;;
11747;SDS011;5931;48.832;9.072;2023-06-26T03:43:55;8.07;;;5.07;;
11747;SDS011;5931;48.832;9.072;2023-06-26T03:46:26;6.63;;;4.40;;
11747;SDS011;5931;48.832;9.072;2023-06-26T03:48:51;8.53;;;5.00;;
11747;SDS011;5931;48.832;9.072;2023-06-26T03:51:17;9.47;;;4.97;;
11747;SDS011;5931;48.832;9.072;2023-06-26T03:53:43;6.80;;;4.70;;
11747;SDS011;5931;48.832;9.072;2023-06-26T03:56:09;8.93;;;4.60;;
11747;SDS011;5931;48.832;9.072;2023-06-26T03:58:34;7.07;;;4.93;;
11747;SDS011;5931;48.832;9.072;2023-06-26T04:01:00;8.20;;;4.50;;
11747;SDS011;5931;48.832;9.072;2023-06-26T04:03:26;7.27;;;4.57;;
11747;SDS011;5931;48.832;9.072;2023-06-26T04:05:52;9.47;;;4.57;;
11747;SDS011;5931;48.832;9.072;2023-06-26T04:08:17;8.37;;;4.27;;
11747;SDS011;5931;48.832;9.072;2023-06-26T04:10:45;6.13;;;4.23;;
11747;SDS011;5931;48.832;9.072;2023-06-26T04:13:12;11.53;;;5.70;;
11747;SDS011;5931;48.832;9.072;2023-06-26T04:15:39;9.73;;;4.87;;
11747;SDS011;5931;48.832;9.072;2023-06-26T04:18:04;8.00;;;4.60;;
11747;SDS011;5931;48.832;9.072;2023-06-26T04:20:30;7.87;;;4.30;;
11747;SDS011;5931;48.832;9.072;2023-06-26T04:22:56;7.93;;;4.37;;
11747;SDS011;5931;48.832;9.072;2023-06-26T04:25:21;6.90;;;3.77;;
11747;SDS011;5931;48.832;9.072;2023-06-26T04:27:47;7.13;;;4.30;;
11747;SDS011;5931;48.832;9.072;2023-06-26T04:30:12;6.87;;;4.90;;
11747;SDS011;5931;48.832;9.072;2023-06-26T04:32:38;8.50;;;5.00;;
11747;SDS011;5931;48.832;9.072;2023-06-26T04:35:04;6.27;;;4.60;;
11747;SDS011;5931;48.832;9.072;2023-06-26T04:37:30;12.53;;;5.73;;
11747;SDS011;5931;48.832;9.072;2023-06-26T04:39:55;7.07;;;4.70;;
11747;SDS011;5931;48.832;9.072;2023-06-26T04:42:21;5.60;;;3.90;;
11747;SDS011;5931;48.832;9.072;2023-06-26T04:44:47;6.30;;;4.57;;
11747;SDS011;5931;48.832;9.072;2023-06-26T04:47:12;6.50;;;4.60;;
11747;SDS011;5931;48.832;9.072;2023-06-26T04:49:40;6.77;;;4.67;;
11747;SDS011;5931;48.832;9.072;2023-06-26T04:52:10;6.30;;;4.60;;
11747;SDS011;5931;48.832;9.072;2023-06-26T04:54:38;10.07;;;5.00;;
11747;SDS011;5931;48.832;9.072;2023-06-26T04:57:04;8.10;;;4.60;;
11747;SDS011;5931;48.832;9.072;2023-06-26T04:59:30;6.50;;;4.77;;
11747;SDS011;5931;48.832;9.072;2023-06-26T05:01:56;7.50;;;4.82;;
11747;SDS011;5931;48.832;9.072;2023-06-26T05:04:22;6.57;;;4.80;;
11747;SDS011;5931;48.832;9.072;2023-06-26T05:06:48;7.17;;;4.40;;
11747;SDS011;5931;48.832;9.072;2023-06-26T05:09:13;4.97;;;4.37;;
11747;SDS011;5931;48.832;9.072;2023-06-26T05:11:39;8.47;;;4.80;;
11747;SDS011;5931;48.832;9.072;2023-06-26T05:14:05;6.70;;;4.17;;
11747;SDS011;5931;48.832;9.072;2023-06-26T05:16:32;6.50;;;4.70;;
11747;SDS011;5931;48.832;9.072;2023-06-26T05:18:59;6.73;;;4.60;;
11747;SDS011;5931;48.832;9.072;2023-06-26T05:21:25;5.87;;;3.90;;
11747;SDS011;5931;48.832;9.072;2023-06-26T05:23:51;5.87;;;4.87;;
11747;SDS011;5931;48.832;9.072;2023-06-26T05:26:20;9.60;;;5.10;;
11747;SDS011;5931;48.832;9.072;2023-06-26T05:28:46;7.10;;;4.93;;
11747;SDS011;5931;48.832;9.072;2023-06-26T05:31:14;4.83;;;4.00;;
11747;SDS011;5931;48.832;9.072;2023-06-26T05:33:40;7.00;;;4.57;;
11747;SDS011;5931;48.832;9.072;2023-06-26T05:36:09;9.07;;;5.23;;
11747;SDS011;5931;48.832;9.072;2023-06-26T05:38:35;7.57;;;5.07;;
11747;SDS011;5931;48.832;9.072;2023-06-26T05:41:00;7.10;;;4.73;;
11747;SDS011;5931;48.832;9.072;2023-06-26T05:43:26;5.83;;;4.57;;
11747;SDS011;5931;48.832;9.072;2023-06-26T05:45:52;8.37;;;4.57;;
11747;SDS011;5931;48.832;9.072;2023-06-26T05:48:17;7.53;;;5.23;;
11747;SDS011;5931;48.832;9.072;2023-06-26T05:50:43;8.33;;;5.50;;
11747;SDS011;5931;48.832;9.072;2023-06-26T05:53:10;7.83;;;5.20;;
11747;SDS011;5931;48.832;9.072;2023-06-26T05:55:36;6.10;;;4.10;;
11747;SDS011;5931;48.832;9.072;2023-06-26T05:58:02;6.57;;;5.00;;
11747;SDS011;5931;48.832;9.072;2023-06-26T06:00:28;6.90;;;3.90;;
11747;SDS011;5931;48.832;9.072;2023-06-26T06:02:54;6.40;;;4.30;;
11747;SDS011;5931;48.832;9.072;2023-06-26T06:05:20;6.00;;;4.13;;
11747;SDS011;5931;48.832;9.072;2023-06-26T06:07:47;6.53;;;4.50;;
11747;SDS011;5931;48.832;9.072;2023-06-26T06:10:13;7.03;;;4.27;;
11747;SDS011;5931;48.832;9.072;2023-06-26T06:12:38;7.50;;;4.30;;
11747;SDS011;5931;48.832;9.072;2023-06-26T06:15:05;5.40;;;4.30;;
11747;SDS011;5931;48.832;9.072;2023-06-26T06:17:31;4.97;;;3.67;;
11747;SDS011;5931;48.832;9.072;2023-06-26T06:19:56;6.53;;;4.50;;
11747;SDS011;5931;48.832;9.072;2023-06-26T06:22:22;7.17;;;4.60;;
11747;SDS011;5931;48.832;9.072;2023-06-26T06:24:50;5.90;;;4.20;;
11747;SDS011;5931;48.832;9.072;2023-06-26T06:27:17;7.33;;;4.53;;
11747;SDS011;5931;48.832;9.072;2023-06-26T06:29:42;10.70;;;5.30;;
11747;SDS011;5931;48.832;9.072;2023-06-26T06:32:08;5.73;;;3.83;;
11747;SDS011;5931;48.832;9.072;2023-06-26T06:34:34;7.43;;;4.50;;
11747;SDS011;5931;48.832;9.072;2023-06-26T06:36:59;8.00;;;4.87;;
11747;SDS011;5931;48.832;9.072;2023-06-26T06:39:25;5.20;;;3.93;;
11747;SDS011;5931;48.832;9.072;2023-06-26T06:41:51;7.23;;;4.07;;
11747;SDS011;5931;48.832;9.072;2023-06-26T06:44:16;5.93;;;4.60;;
11747;SDS011;5931;48.832;9.072;2023-06-26T06:46:42;6.93;;;4.77;;
11747;SDS011;5931;48.832;9.072;2023-06-26T06:49:08;6.30;;;4.17;;
11747;SDS011;5931;48.832;9.072;2023-06-26T06:51:34;4.40;;;4.00;;
11747;SDS011;5931;48.832;9.072;2023-06-26T06:53:59;5.57;;;4.20;;
11747;SDS011;5931;48.832;9.072;2023-06-26T06:56:26;6.07;;;3.93;;
11747;SDS011;5931;48.832;9.072;2023-06-26T06:58:51;5.50;;;4.30;;
11747;SDS011;5931;48.832;9.072;2023-06-26T07:01:17;7.00;;;4.47;;
11747;SDS011;5931;48.832;9.072;2023-06-26T07:03:42;6.10;;;4.00;;
11747;SDS011;5931;48.832;9.072;2023-06-26T07:06:08;4.40;;;3.33;;
11747;SDS011;5931;48.832;9.072;2023-06-26T07:08:34;6.63;;;4.60;;
11747;SDS011;5931;48.832;9.072;2023-06-26T07:11:00;8.30;;;4.80;;
11747;SDS011;5931;48.832;9.072;2023-06-26T07:13:26;7.33;;;4.60;;
11747;SDS011;5931;48.832;9.072;2023-06-26T07:15:52;5.50;;;4.20;;
11747;SDS011;5931;48.832;9.072;2023-06-26T07:18:18;5.80;;;4.20;;
11747;SDS011;5931;48.832;9.072;2023-06-26T07:20:43;6.10;;;4.40;;
11747;SDS011;5931;48.832;9.072;2023-06-26T07:23:09;6.90;;;4.70;;
11747;SDS011;5931;48.832;9.072;2023-06-26T07:25:35;7.10;;;4.70;;
11747;SDS011;5931;48.832;9.072;2023-06-26T07:28:01;5.80;;;4.00;;
11747;SDS011;5931;48.832;9.072;2023-06-26T07:30:27;5.53;;;3.80;;
11747;SDS011;5931;48.832;9.072;2023-06-26T07:32:52;4.97;;;4.30;;
11747;SDS011;5931;48.832;9.072;2023-06-26T07:35:18;5.50;;;4.53;;
11747;SDS011;5931;48.832;9.072;2023-06-26T07:37:44;9.30;;;4.90;;
11747;SDS011;5931;48.832;9.072;2023-06-26T07:40:10;8.90;;;4.60;;
11747;SDS011;5931;48.832;9.072;2023-06-26T07:42:36;6.00;;;4.33;;
11747;SDS011;5931;48.832;9.072;2023-06-26T07:45:01;6.60;;;3.80;;
11747;SDS011;5931;48.832;9.072;2023-06-26T07:47:30;4.77;;;3.70;;
11747;SDS011;5931;48.832;9.072;2023-06-26T07:49:55;5.47;;;4.07;;
11747;SDS011;5931;48.832;9.072;2023-06-26T07:52:21;6.87;;;4.60;;
11747;SDS011;5931;48.832;9.072;2023-06-26T07:54:47;31.77;;;8.87;;
11747;SDS011;5931;48.832;9.072;2023-06-26T07:57:12;5.70;;;3.93;;
11747;SDS011;5931;48.832;9.072;2023-06-26T07:59:38;6.73;;;3.93;;
11747;SDS011;5931;48.832;9.072;2023-06-26T08:02:04;10.57;;;4.80;;
11747;SDS011;5931;48.832;9.072;2023-06-26T08:04:30;6.57;;;4.63;;
11747;SDS011;5931;48.832;9.072;2023-06-26T08:06:59;6.23;;;4.50;;
11747;SDS011;5931;48.832;9.072;2023-06-26T08:09:26;6.33;;;3.87;;
11747;SDS011;5931;48.832;9.072;2023-06-26T08:11:53;4.20;;;3.80;;
11747;SDS011;5931;48.832;9.072;2023-06-26T08:14:19;5.50;;;3.73;;
11747;SDS011;5931;48.832;9.072;2023-06-26T08:16:46;5.60;;;3.77;;
11747;SDS011;5931;48.832;9.072;2023-06-26T08:19:12;5.40;;;3.57;;
11747;SDS011;5931;48.832;9.072;2023-06-26T08:21:39;4.33;;;3.47;;
11747;SDS011;5931;48.832;9.072;2023-06-26T08:24:08;4.30;;;3.67;;
11747;SDS011;5931;48.832;9.072;2023-06-26T08:26:34;9.47;;;4.73;;
11747;SDS011;5931;48.832;9.072;2023-06-26T08:29:00;4.73;;;3.60;;
11747;SDS011;5931;48.832;9.072;2023-06-26T08:31:32;6.73;;;4.00;;
11747;SDS011;5931;48.832;9.072;2023-06-26T08:34:02;6.07;;;3.70;;
11747;SDS011;5931;48.832;9.072;2023-06-26T08:36:28;5.30;;;3.50;;
11747;SDS011;5931;48.832;9.072;2023-06-26T08:38:54;5.23;;;3.47;;
11747;SDS011;5931;48.832;9.072;2023-06-26T08:41:20;4.13;;;3.50;;
11747;SDS011;5931;48.832;9.072;2023-06-26T08:43:45;4.77;;;3.70;;
11747;SDS011;5931;48.832;9.072;2023-06-26T08:46:11;3.43;;;2.73;;
11747;SDS011;5931;48.832;9.072;2023-06-26T08:48:37;4.13;;;3.03;;
11747;SDS011;5931;48.832;9.072;2023-06-26T08:51:12;4.03;;;3.33;;
11747;SDS011;5931;48.832;9.072;2023-06-26T08:53:50;6.60;;;4.07;;
11747;SDS011;5931;48.832;9.072;2023-06-26T08:56:21;5.33;;;4.30;;
11747;SDS011;5931;48.832;9.072;2023-06-26T08:58:47;5.77;;;3.60;;
11747;SDS011;5931;48.832;9.072;2023-06-26T09:01:14;4.40;;;3.03;;
11747;SDS011;5931;48.832;9.072;2023-06-26T09:03:40;5.03;;;3.60;;
11747;SDS011;5931;48.832;9.072;2023-06-26T09:06:08;3.73;;;3.33;;
11747;SDS011;5931;48.832;9.072;2023-06-26T09:08:35;5.40;;;3.53;;
11747;SDS011;5931;48.832;9.072;2023-06-26T09:11:00;4.57;;;3.53;;
11747;SDS011;5931;48.832;9.072;2023-06-26T09:13:28;9.60;;;4.50;;
11747;SDS011;5931;48.832;9.072;2023-06-26T09:15:55;5.53;;;3.83;;
11747;SDS011;5931;48.832;9.072;2023-06-26T09:18:21;4.90;;;4.33;;
11747;SDS011;5931;48.832;9.072;2023-06-26T09:20:47;4.17;;;3.43;;
11747;SDS011;5931;48.832;9.072;2023-06-26T09:23:13;4.07;;;3.67;;
11747;SDS011;5931;48.832;9.072;2023-06-26T09:25:40;6.23;;;4.00;;
11747;SDS011;5931;48.832;9.072;2023-06-26T09:28:06;5.47;;;3.90;;
11747;SDS011;5931;48.832;9.072;2023-06-26T09:30:33;6.33;;;4.27;;
11747;SDS011;5931;48.832;9.072;2023-06-26T09:33:18;4.13;;;3.43;;
11747;SDS011;5931;48.832;9.072;2023-06-26T09:35:45;4.50;;;3.63;;
11747;SDS011;5931;48.832;9.072;2023-06-26T09:38:12;4.30;;;3.40;;
11747;SDS011;5931;48.832;9.072;2023-06-26T09:40:38;3.87;;;3.47;;
11747;SDS011;5931;48.832;9.072;2023-06-26T09:43:05;7.27;;;4.30;;
11747;SDS011;5931;48.832;9.072;2023-06-26T09:45:32;6.47;;;3.57;;
11747;SDS011;5931;48.832;9.072;2023-06-26T09:48:01;5.13;;;3.87;;
11747;SDS011;5931;48.832;9.072;2023-06-26T09:50:28;5.40;;;3.80;;
11747;SDS011;5931;48.832;9.072;2023-06-26T09:52:55;4.20;;;3.70;;
11747;SDS011;5931;48.832;9.072;2023-06-26T09:55:21;8.20;;;4.00;;
11747;SDS011;5931;48.832;9.072;2023-06-26T09:57:48;4.40;;;3.70;;
11747;SDS011;5931;48.832;9.072;2023-06-26T10:00:15;6.83;;;4.50;;
11747;SDS011;5931;48.832;9.072;2023-06-26T10:02:41;6.00;;;3.90;;
11747;SDS011;5931;48.832;9.072;2023-06-26T10:05:06;4.97;;;3.83;;
11747;SDS011;5931;48.832;9.072;2023-06-26T10:07:32;5.30;;;4.13;;
11747;SDS011;5931;48.832;9.072;2023-06-26T10:09:59;7.30;;;5.17;;
11747;SDS011;5931;48.832;9.072;2023-06-26T10:12:27;6.40;;;4.10;;
11747;SDS011;5931;48.832;9.072;2023-06-26T10:14:56;6.43;;;3.90;;
11747;SDS011;5931;48.832;9.072;2023-06-26T10:17:24;4.70;;;3.90;;
11747;SDS011;5931;48.832;9.072;2023-06-26T10:19:52;6.17;;;4.73;;
11747;SDS011;5931;48.832;9.072;2023-06-26T10:22:21;9.00;;;5.87;;
11747;SDS011;5931;48.832;9.072;2023-06-26T10:24:50;4.53;;;4.10;;
11747;SDS011;5931;48.832;9.072;2023-06-26T10:27:17;5.20;;;3.93;;
11747;SDS011;5931;48.832;9.072;2023-06-26T10:29:52;6.33;;;4.27;;
11747;SDS011;5931;48.832;9.072;2023-06-26T10:32:20;5.50;;;4.10;;
11747;SDS011;5931;48.832;9.072;2023-06-26T10:34:48;6.73;;;4.43;;
11747;SDS011;5931;48.832;9.072;2023-06-26T10:37:15;6.00;;;4.20;;
11747;SDS011;5931;48.832;9.072;2023-06-26T10:39:50;6.40;;;4.07;;
11747;SDS011;5931;48.832;9.072;2023-06-26T10:42:19;6.23;;;4.03;;
11747;SDS011;5931;48.832;9.072;2023-06-26T10:44:59;6.83;;;5.40;;
11747;SDS011;5931;48.832;9.072;2023-06-26T10:47:47;4.17;;;3.77;;
11747;SDS011;5931;48.832;9.072;2023-06-26T10:50:20;6.03;;;3.80;;
11747;SDS011;5931;48.832;9.072;2023-06-26T10:55:43;5.53;;;4.43;;
11747;SDS011;5931;48.832;9.072;2023-06-26T10:58:32;6.80;;;4.33;;
11747;SDS011;5931;48.832;9.072;2023-06-26T11:04:03;7.23;;;4.47;;
11747;SDS011;5931;48.832;9.072;2023-06-26T11:06:30;6.80;;;5.30;;
11747;SDS011;5931;48.832;9.072;2023-06-26T11:09:10;5.27;;;4.33;;
11747;SDS011;5931;48.832;9.072;2023-06-26T11:14:23;4.67;;;4.17;;
11747;SDS011;5931;48.832;9.072;2023-06-26T11:16:49;6.43;;;4.83;;
11747;SDS011;5931;48.832;9.072;2023-06-26T11:19:16;5.90;;;4.20;;
11747;SDS011;5931;48.832;9.072;2023-06-26T11:21:43;5.50;;;4.30;;
11747;SDS011;5931;48.832;9.072;2023-06-26T11:24:09;6.53;;;4.70;;
11747;SDS011;5931;48.832;9.072;2023-06-26T11:26:39;5.90;;;4.83;;
11747;SDS011;5931;48.832;9.072;2023-06-26T11:29:10;5.67;;;4.23;;
11747;SDS011;5931;48.832;9.072;2023-06-26T11:31:37;8.23;;;4.50;;
11747;SDS011;5931;48.832;9.072;2023-06-26T11:34:05;7.77;;;4.93;;
11747;SDS011;5931;48.832;9.072;2023-06-26T11:36:38;6.30;;;4.10;;
11747;SDS011;5931;48.832;9.072;2023-06-26T11:39:06;4.77;;;4.27;;
11747;SDS011;5931;48.832;9.072;2023-06-26T11:41:33;5.63;;;4.20;;
11747;SDS011;5931;48.832;9.072;2023-06-26T11:44:04;4.53;;;3.77;;
11747;SDS011;5931;48.832;9.072;2023-06-26T11:46:31;5.17;;;4.40;;
11747;SDS011;5931;48.832;9.072;2023-06-26T11:48:58;7.60;;;4.20;;
11747;SDS011;5931;48.832;9.072;2023-06-26T11:51:26;5.10;;;3.43;;
11747;SDS011;5931;48.832;9.072;2023-06-26T11:53:53;5.70;;;4.60;;
11747;SDS011;5931;48.832;9.072;2023-06-26T11:56:19;7.93;;;4.67;;
11747;SDS011;5931;48.832;9.072;2023-06-26T11:59:20;6.60;;;4.50;;
11747;SDS011;5931;48.832;9.072;2023-06-26T12:01:42;6.00;;;3.93;;
11747;SDS011;5931;48.832;9.072;2023-06-26T12:04:12;4.37;;;3.97;;
11747;SDS011;5931;48.832;9.072;2023-06-26T12:06:42;8.47;;;4.90;;
11747;SDS011;5931;48.832;9.072;2023-06-26T12:09:11;5.20;;;4.37;;
11747;SDS011;5931;48.832;9.072;2023-06-26T12:11:38;5.93;;;4.53;;
11747;SDS011;5931;48.832;9.072;2023-06-26T12:14:07;5.07;;;4.30;;
11747;SDS011;5931;48.832;9.072;2023-06-26T12:16:34;5.67;;;4.33;;
11747;SDS011;5931;48.832;9.072;2023-06-26T12:19:03;6.27;;;4.60;;
11747;SDS011;5931;48.832;9.072;2023-06-26T12:24:02;6.47;;;4.20;;
11747;SDS011;5931;48.832;9.072;2023-06-26T12:26:29;5.10;;;4.53;;
11747;SDS011;5931;48.832;9.072;2023-06-26T12:29:05;7.17;;;3.97;;
11747;SDS011;5931;48.832;9.072;2023-06-26T12:31:32;7.20;;;4.10;;
11747;SDS011;5931;48.832;9.072;2023-06-26T12:33:59;5.20;;;4.47;;
11747;SDS011;5931;48.832;9.072;2023-06-26T12:36:25;10.23;;;4.50;;
11747;SDS011;5931;48.832;9.072;2023-06-26T12:38:52;5.53;;;4.37;;
11747;SDS011;5931;48.832;9.072;2023-06-26T12:41:19;5.77;;;4.10;;
11747;SDS011;5931;48.832;9.072;2023-06-26T12:43:45;5.30;;;4.23;;
11747;SDS011;5931;48.832;9.072;2023-06-26T12:46:11;5.60;;;4.60;;
11747;SDS011;5931;48.832;9.072;2023-06-26T12:48:38;6.40;;;4.70;;
11747;SDS011;5931;48.832;9.072;2023-06-26T12:51:16;5.50;;;4.00;;
11747;SDS011;5931;48.832;9.072;2023-06-26T12:53:42;5.30;;;4.10;;
11747;SDS011;5931;48.832;9.072;2023-06-26T12:56:09;7.00;;;4.60;;
11747;SDS011;5931;48.832;9.072;2023-06-26T12:58:36;5.60;;;4.60;;
11747;SDS011;5931;48.832;9.072;2023-06-26T13:01:03;10.00;;;3.70;;
11747;SDS011;5931;48.832;9.072;2023-06-26T13:03:29;4.13;;;3.43;;
11747;SDS011;5931;48.832;9.072;2023-06-26T13:05:55;6.47;;;3.73;;
11747;SDS011;5931;48.832;9.072;2023-06-26T13:08:21;5.53;;;4.33;;
11747;SDS011;5931;48.832;9.072;2023-06-26T13:10:46;5.10;;;3.50;;
11747;SDS011;5931;48.832;9.072;2023-06-26T13:13:12;5.27;;;3.97;;
11747;SDS011;5931;48.832;9.072;2023-06-26T13:15:38;4.80;;;3.87;;
11747;SDS011;5931;48.832;9.072;2023-06-26T13:18:03;4.43;;;3.43;;
11747;SDS011;5931;48.832;9.072;2023-06-26T13:20:29;5.57;;;3.57;;
11747;SDS011;5931;48.832;9.072;2023-06-26T13:22:55;4.10;;;3.00;;
11747;SDS011;5931;48.832;9.072;2023-06-26T13:25:21;5.07;;;3.50;;
11747;SDS011;5931;48.832;9.072;2023-06-26T13:27:47;4.93;;;3.50;;
11747;SDS011;5931;48.832;9.072;2023-06-26T13:30:13;5.63;;;3.27;;
11747;SDS011;5931;48.832;9.072;2023-06-26T13:32:40;4.77;;;3.47;;
11747;SDS011;5931;48.832;9.072;2023-06-26T13:35:06;5.00;;;3.50;;
11747;SDS011;5931;48.832;9.072;2023-06-26T13:37:32;4.60;;;3.30;;
11747;SDS011;5931;48.832;9.072;2023-06-26T13:39:59;5.40;;;3.60;;
11747;SDS011;5931;48.832;9.072;2023-06-26T13:42:26;4.73;;;3.40;;
11747;SDS011;5931;48.832;9.072;2023-06-26T13:44:53;3.83;;;3.00;;
11747;SDS011;5931;48.832;9.072;2023-06-26T13:47:18;4.50;;;3.20;;
11747;SDS011;5931;48.832;9.072;2023-06-26T13:49:44;3.03;;;2.73;;
11747;SDS011;5931;48.832;9.072;2023-06-26T13:52:10;3.03;;;2.47;;
11747;SDS011;5931;48.832;9.072;2023-06-26T13:54:36;4.67;;;3.50;;
11747;SDS011;5931;48.832;9.072;2023-06-26T13:57:06;3.40;;;3.00;;
11747;SDS011;5931;48.832;9.072;2023-06-26T13:59:32;3.27;;;2.97;;
11747;SDS011;5931;48.832;9.072;2023-06-26T14:01:58;3.00;;;2.70;;
11747;SDS011;5931;48.832;9.072;2023-06-26T14:04:24;4.20;;;2.63;;
11747;SDS011;5931;48.832;9.072;2023-06-26T14:06:50;6.10;;;2.60;;
11747;SDS011;5931;48.832;9.072;2023-06-26T14:09:16;2.60;;;2.17;;
11747;SDS011;5931;48.832;9.072;2023-06-26T14:11:43;3.60;;;2.00;;
11747;SDS011;5931;48.832;9.072;2023-06-26T14:14:09;4.00;;;3.00;;
11747;SDS011;5931;48.832;9.072;2023-06-26T14:16:35;3.87;;;2.70;;
11747;SDS011;5931;48.832;9.072;2023-06-26T14:19:01;2.33;;;1.70;;
11747;SDS011;5931;48.832;9.072;2023-06-26T14:21:27;2.87;;;2.20;;
11747;SDS011;5931;48.832;9.072;2023-06-26T14:23:54;2.90;;;2.30;;
11747;SDS011;5931;48.832;9.072;2023-06-26T14:26:20;4.50;;;2.30;;
11747;SDS011;5931;48.832;9.072;2023-06-26T14:28:46;3.60;;;2.40;;
11747;SDS011;5931;48.832;9.072;2023-06-26T14:31:11;2.90;;;1.93;;
11747;SDS011;5931;48.832;9.072;2023-06-26T14:33:37;2.70;;;2.10;;
11747;SDS011;5931;48.832;9.072;2023-06-26T14:36:03;2.80;;;2.17;;
11747;SDS011;5931;48.832;9.072;2023-06-26T14:38:29;5.27;;;3.10;;
11747;SDS011;5931;48.832;9.072;2023-06-26T14:40:54;4.50;;;2.57;;
11747;SDS011;5931;48.832;9.072;2023-06-26T14:43:20;2.40;;;2.13;;
11747;SDS011;5931;48.832;9.072;2023-06-26T14:45:46;3.37;;;3.07;;
11747;SDS011;5931;48.832;9.072;2023-06-26T14:48:12;2.47;;;2.10;;
11747;SDS011;5931;48.832;9.072;2023-06-26T14:50:37;13.57;;;2.70;;
11747;SDS011;5931;48.832;9.072;2023-06-26T14:53:03;5.13;;;2.40;;
11747;SDS011;5931;48.832;9.072;2023-06-26T14:55:29;5.20;;;2.67;;
11747;SDS011;5931;48.832;9.072;2023-06-26T14:57:55;3.93;;;2.30;;
11747;SDS011;5931;48.832;9.072;2023-06-26T15:00:20;4.13;;;2.90;;
11747;SDS011;5931;48.832;9.072;2023-06-26T15:02:47;4.77;;;2.70;;
11747;SDS011;5931;48.832;9.072;2023-06-26T15:05:13;3.30;;;2.63;;
11747;SDS011;5931;48.832;9.072;2023-06-26T15:07:39;6.33;;;3.07;;
11747;SDS011;5931;48.832;9.072;2023-06-26T15:10:04;4.00;;;2.80;;
11747;SDS011;5931;48.832;9.072;2023-06-26T15:12:31;5.03;;;3.50;;
11747;SDS011;5931;48.832;9.072;2023-06-26T15:14:57;4.40;;;3.10;;
11747;SDS011;5931;48.832;9.072;2023-06-26T15:17:23;5.00;;;3.03;;